createdAt,value
2016-08-25T00:00:49.666Z,0
2016-08-25T00:01:50.297Z,0
2016-08-25T00:02:50.924Z,0
2016-08-25T00:03:51.545Z,0
2016-08-25T00:04:52.174Z,0
2016-08-25T00:05:52.805Z,0
2016-08-25T00:06:53.431Z,0
2016-08-25T00:07:54.052Z,0
2016-08-25T00:08:54.674Z,0
2016-08-25T00:09:55.296Z,0
2016-08-25T00:10:55.928Z,0
2016-08-25T00:11:56.551Z,0
2016-08-25T00:12:57.168Z,0
2016-08-25T00:13:57.794Z,0
2016-08-25T00:14:58.413Z,0
2016-08-25T00:15:59.034Z,0
2016-08-25T00:16:59.655Z,0
2016-08-25T00:18:00.279Z,0
2016-08-25T00:19:00.898Z,0
2016-08-25T00:20:01.516Z,0
2016-08-25T00:21:02.145Z,0
2016-08-25T00:22:02.769Z,0
2016-08-25T00:23:03.408Z,0
2016-08-25T00:24:04.023Z,0
2016-08-25T00:25:04.654Z,0
2016-08-25T00:26:05.279Z,0
2016-08-25T00:27:05.899Z,0
2016-08-25T00:28:06.535Z,0
2016-08-25T00:29:07.143Z,0
2016-08-25T00:30:07.765Z,0
2016-08-25T00:31:08.392Z,0
2016-08-25T00:32:09.021Z,0
2016-08-25T00:33:09.643Z,0
2016-08-25T00:34:10.274Z,0
2016-08-25T00:35:10.897Z,0
2016-08-25T00:36:11.522Z,0
2016-08-25T00:37:12.148Z,0
2016-08-25T00:38:12.770Z,0
2016-08-25T00:39:13.394Z,0
2016-08-25T00:40:14.033Z,0
2016-08-25T00:41:14.668Z,0
2016-08-25T00:42:15.302Z,0
2016-08-25T00:43:15.936Z,0
2016-08-25T00:44:16.578Z,0
2016-08-25T00:45:17.205Z,0
2016-08-25T00:46:17.832Z,0
2016-08-25T00:47:18.471Z,0
2016-08-25T00:48:19.101Z,0
2016-08-25T00:49:19.718Z,0
2016-08-25T00:50:20.345Z,0
2016-08-25T00:51:20.966Z,0
2016-08-25T00:52:21.587Z,0
2016-08-25T00:53:22.209Z,0
2016-08-25T00:54:22.830Z,0
2016-08-25T00:55:23.454Z,0
2016-08-25T00:56:24.074Z,0
2016-08-25T00:57:24.714Z,0
2016-08-25T00:58:25.345Z,0
2016-08-25T00:59:25.978Z,0
2016-08-25T01:00:26.604Z,0
2016-08-25T01:01:27.232Z,0
2016-08-25T01:02:27.856Z,0
2016-08-25T01:03:28.472Z,0
2016-08-25T01:04:29.100Z,0
2016-08-25T01:05:29.741Z,0
2016-08-25T01:06:30.369Z,0
2016-08-25T01:07:31.005Z,0
2016-08-25T01:08:31.633Z,0
2016-08-25T01:09:32.255Z,0
2016-08-25T01:10:32.882Z,0
2016-08-25T01:11:33.508Z,0
2016-08-25T01:12:34.137Z,0
2016-08-25T01:13:34.753Z,0
2016-08-25T01:14:35.379Z,0
2016-08-25T01:15:35.996Z,0
2016-08-25T01:16:36.627Z,0
2016-08-25T01:17:37.266Z,0
2016-08-25T01:18:37.893Z,0
2016-08-25T01:19:38.530Z,0
2016-08-25T01:20:39.156Z,0
2016-08-25T01:21:39.781Z,0
2016-08-25T01:22:40.409Z,0
2016-08-25T01:23:41.030Z,0
2016-08-25T01:24:41.650Z,0
2016-08-25T01:25:42.270Z,0
2016-08-25T01:26:42.889Z,0
2016-08-25T01:27:43.510Z,0
2016-08-25T01:28:44.137Z,0
2016-08-25T01:29:44.763Z,0
2016-08-25T01:30:45.389Z,0
2016-08-25T01:31:46.011Z,0
2016-08-25T01:32:46.637Z,0
2016-08-25T01:33:47.258Z,0
2016-08-25T01:34:47.880Z,0
2016-08-25T01:35:48.502Z,0
2016-08-25T01:36:49.146Z,0
2016-08-25T01:37:49.770Z,0
2016-08-25T01:38:50.420Z,0
2016-08-25T01:39:51.058Z,0
2016-08-25T01:40:51.679Z,0
2016-08-25T01:41:52.312Z,0
2016-08-25T01:42:52.937Z,0
2016-08-25T01:43:53.555Z,0
2016-08-25T01:44:54.179Z,0
2016-08-25T01:45:54.803Z,0
2016-08-25T01:46:55.422Z,0
2016-08-25T01:47:56.042Z,0
2016-08-25T01:48:56.669Z,0
2016-08-25T01:49:57.292Z,0
2016-08-25T01:50:57.916Z,0
2016-08-25T01:51:58.561Z,0
2016-08-25T01:52:59.185Z,0
2016-08-25T01:53:59.807Z,0
2016-08-25T01:55:00.446Z,0
2016-08-25T01:56:01.087Z,0
2016-08-25T01:57:01.711Z,0
2016-08-25T01:58:02.339Z,0
2016-08-25T01:59:02.963Z,0
2016-08-25T02:00:03.591Z,0
2016-08-25T02:01:04.228Z,0
2016-08-25T02:02:04.853Z,0
2016-08-25T02:03:05.490Z,0
2016-08-25T02:04:06.116Z,0
2016-08-25T02:05:06.747Z,0
2016-08-25T02:06:07.385Z,0
2016-08-25T02:07:08.009Z,0
2016-08-25T02:08:08.633Z,0
2016-08-25T02:09:09.251Z,0
2016-08-25T02:10:09.872Z,0
2016-08-25T02:11:10.531Z,0
2016-08-25T02:12:11.153Z,0
2016-08-25T02:13:11.779Z,0
2016-08-25T02:14:12.405Z,0
2016-08-25T02:15:13.058Z,0
2016-08-25T02:16:13.697Z,0
2016-08-25T02:17:14.329Z,0
2016-08-25T02:18:14.955Z,0
2016-08-25T02:19:15.573Z,0
2016-08-25T02:20:16.193Z,0
2016-08-25T02:21:16.819Z,0
2016-08-25T02:22:17.438Z,0
2016-08-25T02:23:18.058Z,0
2016-08-25T02:24:18.680Z,0
2016-08-25T02:25:19.296Z,0
2016-08-25T02:26:19.926Z,0
2016-08-25T02:27:20.561Z,0
2016-08-25T02:28:21.177Z,0
2016-08-25T02:29:21.808Z,0
2016-08-25T02:30:22.438Z,0
2016-08-25T02:31:23.061Z,0
2016-08-25T02:32:23.700Z,0
2016-08-25T02:33:24.326Z,0
2016-08-25T02:34:24.947Z,0
2016-08-25T02:35:25.568Z,0
2016-08-25T02:36:26.202Z,0
2016-08-25T02:37:26.822Z,0
2016-08-25T02:38:27.445Z,0
2016-08-25T02:39:28.083Z,0
2016-08-25T02:40:28.712Z,0
2016-08-25T02:41:29.337Z,0
2016-08-25T02:42:29.960Z,0
2016-08-25T02:43:30.583Z,0
2016-08-25T02:44:31.205Z,0
2016-08-25T02:45:31.830Z,0
2016-08-25T02:46:32.448Z,0
2016-08-25T02:47:33.079Z,0
2016-08-25T02:48:33.720Z,0
2016-08-25T02:49:34.351Z,0
2016-08-25T02:50:34.968Z,0
2016-08-25T02:51:35.591Z,0
2016-08-25T02:52:36.223Z,0
2016-08-25T02:53:36.849Z,0
2016-08-25T02:54:37.489Z,0
2016-08-25T02:55:38.114Z,0
2016-08-25T02:56:38.749Z,0
2016-08-25T02:57:39.366Z,0
2016-08-25T02:58:39.998Z,0
2016-08-25T02:59:40.628Z,0
2016-08-25T03:00:41.252Z,0
2016-08-25T03:01:41.902Z,0
2016-08-25T03:02:42.526Z,0
2016-08-25T03:03:43.146Z,0
2016-08-25T03:04:43.792Z,0
2016-08-25T03:05:44.411Z,0
2016-08-25T03:06:45.034Z,0
2016-08-25T03:07:45.657Z,0
2016-08-25T03:08:46.280Z,0
2016-08-25T03:09:46.911Z,0
2016-08-25T03:10:47.545Z,0
2016-08-25T03:11:48.171Z,0
2016-08-25T03:12:48.800Z,0
2016-08-25T03:13:49.441Z,0
2016-08-25T03:14:50.062Z,0
2016-08-25T03:15:50.688Z,0
2016-08-25T03:16:51.310Z,0
2016-08-25T03:17:51.942Z,0
2016-08-25T03:18:52.576Z,0
2016-08-25T03:19:53.212Z,0
2016-08-25T03:20:53.837Z,0
2016-08-25T03:21:54.465Z,0
2016-08-25T03:22:55.086Z,0
2016-08-25T03:23:55.714Z,0
2016-08-25T03:24:56.344Z,0
2016-08-25T03:25:56.976Z,0
2016-08-25T03:26:57.603Z,0
2016-08-25T03:27:58.219Z,0
2016-08-25T03:28:58.834Z,0
2016-08-25T03:29:59.483Z,0
2016-08-25T03:31:00.109Z,0
2016-08-25T03:32:00.733Z,0
2016-08-25T03:33:01.354Z,0
2016-08-25T03:34:01.989Z,0
2016-08-25T03:35:02.611Z,0
2016-08-25T03:36:03.232Z,0
2016-08-25T03:37:03.860Z,0
2016-08-25T03:38:04.491Z,0
2016-08-25T03:39:05.150Z,0
2016-08-25T03:40:05.773Z,0
2016-08-25T03:41:06.420Z,0
2016-08-25T03:42:07.058Z,0
2016-08-25T03:43:07.692Z,0
2016-08-25T03:44:08.315Z,0
2016-08-25T03:45:08.948Z,0
2016-08-25T03:46:09.582Z,0
2016-08-25T03:47:10.204Z,4
2016-08-25T03:48:10.830Z,4
2016-08-25T03:49:11.453Z,0
2016-08-25T03:50:12.078Z,0
2016-08-25T03:51:12.706Z,4
2016-08-25T03:52:13.333Z,4
2016-08-25T03:53:13.952Z,4
2016-08-25T03:54:14.570Z,4
2016-08-25T03:55:15.193Z,4
2016-08-25T03:56:15.811Z,8
2016-08-25T03:57:16.442Z,4
2016-08-25T03:58:17.069Z,8
2016-08-25T03:59:17.697Z,8
2016-08-25T04:00:18.319Z,8
2016-08-25T04:01:18.941Z,8
2016-08-25T04:02:19.563Z,16
2016-08-25T04:03:20.200Z,16
2016-08-25T04:04:20.833Z,20
2016-08-25T04:05:21.458Z,20
2016-08-25T04:06:22.077Z,24
2016-08-25T04:07:22.699Z,24
2016-08-25T04:08:23.329Z,28
2016-08-25T04:09:23.956Z,32
2016-08-25T04:10:24.583Z,32
2016-08-25T04:11:25.213Z,36
2016-08-25T04:12:25.852Z,44
2016-08-25T04:13:26.467Z,44
2016-08-25T04:14:27.091Z,48
2016-08-25T04:15:27.708Z,56
2016-08-25T04:16:28.335Z,60
2016-08-25T04:17:28.953Z,64
2016-08-25T04:18:29.575Z,68
2016-08-25T04:19:30.205Z,72
2016-08-25T04:20:30.826Z,80
2016-08-25T04:21:31.450Z,84
2016-08-25T04:22:32.087Z,92
2016-08-25T04:23:32.709Z,96
2016-08-25T04:24:33.362Z,100
2016-08-25T04:25:34.006Z,108
2016-08-25T04:26:34.631Z,116
2016-08-25T04:27:35.254Z,124
2016-08-25T04:28:35.878Z,132
2016-08-25T04:29:36.499Z,136
2016-08-25T04:30:37.124Z,144
2016-08-25T04:31:37.766Z,148
2016-08-25T04:32:38.388Z,156
2016-08-25T04:33:39.007Z,164
2016-08-25T04:34:39.626Z,168
2016-08-25T04:35:40.250Z,180
2016-08-25T04:36:40.868Z,184
2016-08-25T04:37:41.504Z,192
2016-08-25T04:38:42.129Z,200
2016-08-25T04:39:42.752Z,208
2016-08-25T04:40:43.376Z,212
2016-08-25T04:41:44.005Z,224
2016-08-25T04:42:44.628Z,228
2016-08-25T04:43:45.250Z,236
2016-08-25T04:44:45.868Z,240
2016-08-25T04:45:46.489Z,248
2016-08-25T04:46:47.119Z,260
2016-08-25T04:47:47.750Z,268
2016-08-25T04:48:48.371Z,276
2016-08-25T04:49:49.000Z,284
2016-08-25T04:50:49.621Z,288
2016-08-25T04:51:50.248Z,296
2016-08-25T04:52:50.876Z,304
2016-08-25T04:53:51.500Z,308
2016-08-25T04:54:52.132Z,316
2016-08-25T04:55:52.757Z,324
2016-08-25T04:56:53.387Z,328
2016-08-25T04:57:54.026Z,336
2016-08-25T04:58:54.646Z,340
2016-08-25T04:59:55.268Z,348
2016-08-25T05:00:55.891Z,352
2016-08-25T05:01:56.512Z,364
2016-08-25T05:02:57.138Z,368
2016-08-25T05:03:57.757Z,372
2016-08-25T05:04:58.370Z,380
2016-08-25T05:05:59.000Z,384
2016-08-25T05:06:59.635Z,392
2016-08-25T05:08:00.263Z,400
2016-08-25T05:09:00.889Z,400
2016-08-25T05:10:01.509Z,408
2016-08-25T05:11:02.129Z,412
2016-08-25T05:12:02.772Z,420
2016-08-25T05:13:03.407Z,424
2016-08-25T05:14:04.032Z,428
2016-08-25T05:15:04.653Z,432
2016-08-25T05:16:05.274Z,440
2016-08-25T05:17:05.910Z,444
2016-08-25T05:18:06.550Z,448
2016-08-25T05:19:07.215Z,452
2016-08-25T05:20:07.836Z,460
2016-08-25T05:21:08.463Z,464
2016-08-25T05:22:09.100Z,464
2016-08-25T05:23:09.732Z,472
2016-08-25T05:24:10.347Z,476
2016-08-25T05:25:10.971Z,484
2016-08-25T05:26:11.612Z,492
2016-08-25T05:27:12.243Z,496
2016-08-25T05:28:12.928Z,500
2016-08-25T05:29:13.557Z,508
2016-08-25T05:30:14.203Z,512
2016-08-25T05:31:14.833Z,520
2016-08-25T05:32:15.466Z,532
2016-08-25T05:33:16.089Z,552
2016-08-25T05:34:16.712Z,572
2016-08-25T05:35:17.332Z,600
2016-08-25T05:36:17.954Z,636
2016-08-25T05:37:18.605Z,664
2016-08-25T05:38:19.235Z,688
2016-08-25T05:39:19.868Z,712
2016-08-25T05:40:20.498Z,740
2016-08-25T05:41:21.123Z,768
2016-08-25T05:42:21.763Z,804
2016-08-25T05:43:22.393Z,844
2016-08-25T05:44:23.027Z,924
2016-08-25T05:45:23.657Z,928
2016-08-25T05:46:24.284Z,972
2016-08-25T05:47:24.911Z,1028
2016-08-25T05:48:25.530Z,1120
2016-08-25T05:49:26.156Z,1232
2016-08-25T05:50:26.772Z,1292
2016-08-25T05:51:27.401Z,1412
2016-08-25T05:52:28.045Z,1544
2016-08-25T05:53:28.684Z,1664
2016-08-25T05:54:29.311Z,1772
2016-08-25T05:55:29.933Z,1876
2016-08-25T05:56:30.554Z,1984
2016-08-25T05:57:31.182Z,2104
2016-08-25T05:58:31.806Z,2184
2016-08-25T05:59:32.430Z,2256
2016-08-25T06:00:33.062Z,2328
2016-08-25T06:01:33.703Z,2456
2016-08-25T06:02:34.323Z,2440
2016-08-25T06:03:34.942Z,2508
2016-08-25T06:04:35.566Z,2572
2016-08-25T06:05:36.211Z,2660
2016-08-25T06:06:36.873Z,2692
2016-08-25T06:07:37.520Z,2696
2016-08-25T06:08:38.152Z,2740
2016-08-25T06:09:38.780Z,2764
2016-08-25T06:10:39.409Z,2748
2016-08-25T06:11:40.037Z,2744
2016-08-25T06:12:40.678Z,2732
2016-08-25T06:13:41.312Z,2748
2016-08-25T06:14:41.945Z,2744
2016-08-25T06:15:42.567Z,2744
2016-08-25T06:16:43.197Z,2744
2016-08-25T06:17:43.830Z,2744
2016-08-25T06:18:44.455Z,2712
2016-08-25T06:19:45.084Z,2708
2016-08-25T06:20:45.709Z,2696
2016-08-25T06:21:46.335Z,2684
2016-08-25T06:22:46.965Z,2668
2016-08-25T06:23:47.606Z,2656
2016-08-25T06:24:48.224Z,2644
2016-08-25T06:25:48.851Z,2620
2016-08-25T06:26:49.485Z,2644
2016-08-25T06:27:50.111Z,2560
2016-08-25T06:28:50.749Z,2536
2016-08-25T06:29:51.410Z,2492
2016-08-25T06:30:52.069Z,2480
2016-08-25T06:31:52.695Z,2448
2016-08-25T06:32:53.317Z,2420
2016-08-25T06:33:53.948Z,2344
2016-08-25T06:34:54.574Z,2316
2016-08-25T06:35:55.197Z,2276
2016-08-25T06:36:55.822Z,2248
2016-08-25T06:37:56.454Z,2212
2016-08-25T06:38:57.073Z,2188
2016-08-25T06:39:57.705Z,2152
2016-08-25T06:40:58.331Z,2152
2016-08-25T06:41:58.967Z,2112
2016-08-25T06:42:59.601Z,2088
2016-08-25T06:44:00.227Z,2060
2016-08-25T06:45:00.864Z,2056
2016-08-25T06:46:01.489Z,2056
2016-08-25T06:47:02.131Z,2060
2016-08-25T06:48:02.775Z,2052
2016-08-25T06:49:03.405Z,2044
2016-08-25T06:50:04.050Z,2048
2016-08-25T06:51:04.685Z,2040
2016-08-25T06:52:05.311Z,2048
2016-08-25T06:53:05.946Z,2044
2016-08-25T06:54:06.572Z,2036
2016-08-25T06:55:07.238Z,2028
2016-08-25T06:56:07.878Z,2028
2016-08-25T06:57:08.503Z,2036
2016-08-25T06:58:09.118Z,2044
2016-08-25T06:59:09.741Z,2040
2016-08-25T07:00:10.364Z,2040
2016-08-25T07:01:10.995Z,2048
2016-08-25T07:02:11.643Z,2056
2016-08-25T07:03:12.270Z,2060
2016-08-25T07:04:12.897Z,2060
2016-08-25T07:05:13.520Z,2064
2016-08-25T07:06:14.140Z,2076
2016-08-25T07:07:14.769Z,2084
2016-08-25T07:08:15.393Z,2104
2016-08-25T07:09:16.015Z,2100
2016-08-25T07:10:16.643Z,2112
2016-08-25T07:11:17.275Z,2128
2016-08-25T07:12:17.907Z,2116
2016-08-25T07:13:18.541Z,2132
2016-08-25T07:14:19.169Z,2136
2016-08-25T07:15:19.800Z,2136
2016-08-25T07:16:20.437Z,2144
2016-08-25T07:17:21.075Z,2140
2016-08-25T07:18:21.708Z,2140
2016-08-25T07:19:22.334Z,2148
2016-08-25T07:20:22.953Z,2124
2016-08-25T07:21:23.576Z,2120
2016-08-25T07:22:24.198Z,2104
2016-08-25T07:23:24.815Z,2100
2016-08-25T07:24:25.436Z,2092
2016-08-25T07:25:26.068Z,2096
2016-08-25T07:26:26.707Z,2084
2016-08-25T07:27:27.339Z,2080
2016-08-25T07:28:27.980Z,2084
2016-08-25T07:29:28.608Z,2092
2016-08-25T07:30:29.252Z,2084
2016-08-25T07:31:29.898Z,2092
2016-08-25T07:32:30.588Z,2100
2016-08-25T07:33:31.208Z,2100
2016-08-25T07:34:31.832Z,2104
2016-08-25T07:35:32.466Z,2108
2016-08-25T07:36:33.090Z,2108
2016-08-25T07:37:33.729Z,2104
2016-08-25T07:38:34.361Z,2108
2016-08-25T07:39:34.993Z,2104
2016-08-25T07:40:35.616Z,2104
2016-08-25T07:41:36.239Z,2104
2016-08-25T07:42:36.859Z,2096
2016-08-25T07:43:37.480Z,2096
2016-08-25T07:44:38.124Z,2100
2016-08-25T07:45:38.766Z,2096
2016-08-25T07:46:39.398Z,2100
2016-08-25T07:47:40.023Z,2092
2016-08-25T07:48:40.665Z,2096
2016-08-25T07:49:41.301Z,2092
2016-08-25T07:50:41.939Z,2092
2016-08-25T07:51:42.572Z,2092
2016-08-25T07:52:43.217Z,2104
2016-08-25T07:53:43.851Z,2112
2016-08-25T07:54:44.486Z,2128
2016-08-25T07:55:45.112Z,2132
2016-08-25T07:56:45.742Z,2156
2016-08-25T07:57:46.380Z,2148
2016-08-25T07:58:47.003Z,2148
2016-08-25T07:59:47.651Z,2144
2016-08-25T08:00:48.281Z,2120
2016-08-25T08:01:48.915Z,2116
2016-08-25T08:02:49.544Z,2108
2016-08-25T08:03:50.172Z,2120
2016-08-25T08:04:50.806Z,2104
2016-08-25T08:05:51.436Z,2092
2016-08-25T08:06:52.094Z,2092
2016-08-25T08:07:52.730Z,2088
2016-08-25T08:08:53.360Z,2092
2016-08-25T08:09:53.988Z,2100
2016-08-25T08:10:54.636Z,2116
2016-08-25T08:11:55.307Z,2132
2016-08-25T08:12:55.941Z,2140
2016-08-25T08:13:56.569Z,2104
2016-08-25T08:14:57.200Z,2160
2016-08-25T08:15:57.877Z,2148
2016-08-25T08:16:58.471Z,2124
2016-08-25T08:17:59.126Z,2104
2016-08-25T08:18:59.738Z,2108
2016-08-25T08:20:00.359Z,2060
2016-08-25T08:21:00.992Z,2044
2016-08-25T08:22:01.631Z,2020
2016-08-25T08:23:02.269Z,2004
2016-08-25T08:24:02.902Z,1988
2016-08-25T08:25:03.534Z,1980
2016-08-25T08:26:04.169Z,1972
2016-08-25T08:27:04.840Z,1964
2016-08-25T08:28:05.470Z,1944
2016-08-25T08:29:06.099Z,1936
2016-08-25T08:30:06.729Z,1928
2016-08-25T08:31:07.355Z,1932
2016-08-25T08:32:07.983Z,1872
2016-08-25T08:33:08.607Z,1832
2016-08-25T08:34:09.250Z,1876
2016-08-25T08:35:09.887Z,1916
2016-08-25T08:36:10.513Z,1896
2016-08-25T08:37:11.153Z,1880
2016-08-25T08:38:11.786Z,1872
2016-08-25T08:39:12.416Z,1860
2016-08-25T08:40:13.043Z,1844
2016-08-25T08:41:13.667Z,1836
2016-08-25T08:42:14.305Z,1828
2016-08-25T08:43:14.932Z,1808
2016-08-25T08:44:15.565Z,1792
2016-08-25T08:45:16.196Z,1772
2016-08-25T08:46:16.838Z,1756
2016-08-25T08:47:17.488Z,1736
2016-08-25T08:48:18.124Z,1716
2016-08-25T08:49:18.752Z,1696
2016-08-25T08:50:19.386Z,1640
2016-08-25T08:51:20.020Z,1612
2016-08-25T08:52:20.647Z,1592
2016-08-25T08:53:21.278Z,1564
2016-08-25T08:54:21.905Z,1552
2016-08-25T08:55:22.537Z,1556
2016-08-25T08:56:23.163Z,1548
2016-08-25T08:57:23.796Z,1532
2016-08-25T08:58:24.430Z,1532
2016-08-25T08:59:25.067Z,1524
2016-08-25T09:00:25.700Z,1516
2016-08-25T09:01:26.326Z,1492
2016-08-25T09:02:26.964Z,1500
2016-08-25T09:03:27.602Z,1504
2016-08-25T09:04:28.222Z,1488
2016-08-25T09:05:28.854Z,1488
2016-08-25T09:06:29.484Z,1520
2016-08-25T09:07:30.118Z,1540
2016-08-25T09:08:30.751Z,1552
2016-08-25T09:09:31.383Z,1540
2016-08-25T09:10:32.007Z,1520
2016-08-25T09:11:32.654Z,1484
2016-08-25T09:12:33.283Z,1448
2016-08-25T09:13:33.912Z,1416
2016-08-25T09:14:34.550Z,1376
2016-08-25T09:15:35.178Z,1336
2016-08-25T09:16:35.809Z,1348
2016-08-25T09:17:36.448Z,1384
2016-08-25T09:18:37.102Z,1416
2016-08-25T09:19:37.724Z,1448
2016-08-25T09:20:38.357Z,1484
2016-08-25T09:21:38.973Z,1540
2016-08-25T09:22:39.606Z,1628
2016-08-25T09:23:40.242Z,1676
2016-08-25T09:24:40.873Z,1772
2016-08-25T09:25:41.507Z,1812
2016-08-25T09:26:42.153Z,1812
2016-08-25T09:27:42.791Z,1804
2016-08-25T09:28:43.451Z,1728
2016-08-25T09:29:44.103Z,1616
2016-08-25T09:30:44.728Z,1548
2016-08-25T09:31:45.645Z,1440
2016-08-25T09:32:46.853Z,1328
2016-08-25T09:33:47.659Z,1288
2016-08-25T09:34:48.457Z,1288
2016-08-25T09:35:49.247Z,1304
2016-08-25T09:36:51.140Z,1320
2016-08-25T09:37:51.770Z,1320
2016-08-25T09:38:52.854Z,1368
2016-08-25T09:39:53.624Z,1352
2016-08-25T09:40:54.396Z,1292
2016-08-25T09:41:55.138Z,1372
2016-08-25T09:42:55.769Z,1396
2016-08-25T09:43:56.511Z,1276
2016-08-25T09:44:57.140Z,1364
2016-08-25T09:45:57.779Z,1368
2016-08-25T09:46:58.406Z,1368
2016-08-25T09:47:59.066Z,1336
2016-08-25T09:48:59.732Z,1372
2016-08-25T09:50:00.365Z,1372
2016-08-25T09:51:01.002Z,1396
2016-08-25T09:52:01.624Z,1412
2016-08-25T09:53:02.265Z,1464
2016-08-25T09:54:03.212Z,1492
2016-08-25T09:55:03.950Z,1508
2016-08-25T09:56:04.599Z,1508
2016-08-25T09:57:05.281Z,1484
2016-08-25T09:58:05.995Z,1384
2016-08-25T09:59:06.642Z,1260
2016-08-25T10:00:07.371Z,1268
2016-08-25T10:01:08.436Z,1252
2016-08-25T10:02:09.202Z,1240
2016-08-25T10:03:09.927Z,1220
2016-08-25T10:04:10.550Z,1176
2016-08-25T10:05:11.408Z,1072
2016-08-25T10:06:12.428Z,976
2016-08-25T10:07:13.055Z,1148
2016-08-25T10:08:13.761Z,1036
2016-08-25T10:09:14.388Z,1124
2016-08-25T10:10:15.076Z,1148
2016-08-25T10:11:15.726Z,1040
2016-08-25T10:12:16.484Z,964
2016-08-25T10:13:17.117Z,1052
2016-08-25T10:14:17.769Z,1024
2016-08-25T10:15:18.632Z,1060
2016-08-25T10:16:19.309Z,1084
2016-08-25T10:17:20.006Z,1064
2016-08-25T10:18:20.638Z,1056
2016-08-25T10:19:21.275Z,1044
2016-08-25T10:20:21.902Z,1040
2016-08-25T10:21:22.535Z,1032
2016-08-25T10:22:23.164Z,1020
2016-08-25T10:23:23.805Z,992
2016-08-25T10:24:24.466Z,936
2016-08-25T10:25:25.101Z,888
2016-08-25T10:26:25.725Z,868
2016-08-25T10:27:26.353Z,1052
2016-08-25T10:28:26.982Z,1120
2016-08-25T10:29:27.614Z,1104
2016-08-25T10:30:28.252Z,1132
2016-08-25T10:31:28.880Z,1148
2016-08-25T10:32:29.507Z,1136
2016-08-25T10:33:30.138Z,1132
2016-08-25T10:34:30.769Z,1108
2016-08-25T10:35:31.411Z,1084
2016-08-25T10:36:32.031Z,1080
2016-08-25T10:37:32.700Z,1040
2016-08-25T10:38:33.335Z,1040
2016-08-25T10:39:33.990Z,1060
2016-08-25T10:40:34.621Z,764
2016-08-25T10:41:35.281Z,936
2016-08-25T10:42:35.921Z,1032
2016-08-25T10:43:36.567Z,1080
2016-08-25T10:44:37.214Z,1172
2016-08-25T10:45:37.840Z,1208
2016-08-25T10:46:38.470Z,1220
2016-08-25T10:47:39.112Z,1184
2016-08-25T10:48:39.757Z,1116
2016-08-25T10:49:40.381Z,1144
2016-08-25T10:50:41.021Z,1108
2016-08-25T10:51:41.728Z,1068
2016-08-25T10:52:42.365Z,1008
2016-08-25T10:53:42.995Z,1044
2016-08-25T10:54:43.638Z,1104
2016-08-25T10:55:44.279Z,1148
2016-08-25T10:56:44.978Z,1228
2016-08-25T10:57:45.609Z,1256
2016-08-25T10:58:46.239Z,1272
2016-08-25T10:59:46.879Z,1272
2016-08-25T11:00:47.503Z,1272
2016-08-25T11:01:48.140Z,1248
2016-08-25T11:02:48.765Z,1224
2016-08-25T11:03:49.395Z,1212
2016-08-25T11:04:50.028Z,1180
2016-08-25T11:05:50.672Z,1124
2016-08-25T11:06:51.305Z,1100
2016-08-25T11:07:51.946Z,1092
2016-08-25T11:08:52.583Z,1072
2016-08-25T11:09:53.213Z,1072
2016-08-25T11:10:53.850Z,1068
2016-08-25T11:11:54.485Z,1072
2016-08-25T11:12:55.107Z,1076
2016-08-25T11:13:55.739Z,1056
2016-08-25T11:14:56.377Z,1036
2016-08-25T11:15:57.007Z,1032
2016-08-25T11:16:57.655Z,1060
2016-08-25T11:17:58.297Z,1080
2016-08-25T11:18:58.977Z,1092
2016-08-25T11:19:59.617Z,1108
2016-08-25T11:21:00.266Z,1136
2016-08-25T11:22:00.897Z,1164
2016-08-25T11:23:01.519Z,1200
2016-08-25T11:24:02.157Z,1212
2016-08-25T11:25:02.810Z,1208
2016-08-25T11:26:03.441Z,1188
2016-08-25T11:27:04.076Z,1156
2016-08-25T11:28:04.724Z,1116
2016-08-25T11:29:05.366Z,1032
2016-08-25T11:30:05.995Z,948
2016-08-25T11:31:06.619Z,956
2016-08-25T11:32:07.257Z,928
2016-08-25T11:33:07.893Z,904
2016-08-25T11:34:08.519Z,900
2016-08-25T11:35:09.145Z,896
2016-08-25T11:36:09.782Z,896
2016-08-25T11:37:10.416Z,900
2016-08-25T11:38:11.052Z,916
2016-08-25T11:39:11.694Z,916
2016-08-25T11:40:12.328Z,924
2016-08-25T11:41:12.961Z,920
2016-08-25T11:42:13.591Z,932
2016-08-25T11:43:14.226Z,936
2016-08-25T11:44:14.877Z,944
2016-08-25T11:45:35.408Z,936
2016-08-25T11:46:36.043Z,940
2016-08-25T11:47:36.769Z,932
2016-08-25T11:48:37.390Z,928
2016-08-25T11:49:38.021Z,932
2016-08-25T11:50:38.670Z,940
2016-08-25T11:51:39.333Z,940
2016-08-25T11:52:39.964Z,940
2016-08-25T11:53:40.590Z,932
2016-08-25T11:54:41.229Z,936
2016-08-25T11:55:41.848Z,932
2016-08-25T11:56:42.478Z,936
2016-08-25T11:57:43.110Z,924
2016-08-25T11:58:43.747Z,940
2016-08-25T11:59:44.369Z,936
2016-08-25T12:00:45.005Z,940
2016-08-25T12:01:45.636Z,944
2016-08-25T12:02:46.264Z,940
2016-08-25T12:03:46.906Z,940
2016-08-25T12:04:47.538Z,932
2016-08-25T12:05:48.179Z,924
2016-08-25T12:06:48.816Z,920
2016-08-25T12:07:49.457Z,928
2016-08-25T12:08:50.089Z,920
2016-08-25T12:09:50.719Z,928
2016-08-25T12:10:51.345Z,912
2016-08-25T12:11:51.985Z,916
2016-08-25T12:12:52.618Z,920
2016-08-25T12:13:53.245Z,928
2016-08-25T12:14:53.880Z,928
2016-08-25T12:15:54.514Z,932
2016-08-25T12:16:55.152Z,920
2016-08-25T12:17:55.782Z,924
2016-08-25T12:18:56.424Z,924
2016-08-25T12:19:57.050Z,892
2016-08-25T12:20:57.679Z,876
2016-08-25T12:21:58.326Z,860
2016-08-25T12:22:58.951Z,860
2016-08-25T12:23:59.593Z,848
2016-08-25T12:25:00.231Z,844
2016-08-25T12:26:00.851Z,856
2016-08-25T12:27:01.474Z,864
2016-08-25T12:28:02.121Z,880
2016-08-25T12:29:02.769Z,884
2016-08-25T12:30:03.405Z,904
2016-08-25T12:31:04.039Z,912
2016-08-25T12:32:04.676Z,920
2016-08-25T12:33:05.298Z,928
2016-08-25T12:34:05.949Z,936
2016-08-25T12:35:06.568Z,936
2016-08-25T12:36:07.205Z,928
2016-08-25T12:37:07.827Z,928
2016-08-25T12:38:08.448Z,936
2016-08-25T12:39:09.088Z,936
2016-08-25T12:40:09.716Z,928
2016-08-25T12:41:10.349Z,924
2016-08-25T12:42:10.988Z,912
2016-08-25T12:43:11.620Z,896
2016-08-25T12:44:12.282Z,884
2016-08-25T12:45:12.922Z,864
2016-08-25T12:46:13.559Z,848
2016-08-25T12:47:14.195Z,832
2016-08-25T12:48:14.825Z,828
2016-08-25T12:49:15.479Z,820
2016-08-25T12:50:16.134Z,824
2016-08-25T12:51:16.791Z,816
2016-08-25T12:52:17.413Z,816
2016-08-25T12:53:18.056Z,812
2016-08-25T12:54:18.683Z,812
2016-08-25T12:55:19.312Z,816
2016-08-25T12:56:19.947Z,808
2016-08-25T12:57:20.578Z,816
2016-08-25T12:58:21.210Z,820
2016-08-25T12:59:21.834Z,816
2016-08-25T13:00:22.463Z,816
2016-08-25T13:01:23.090Z,820
2016-08-25T13:02:23.726Z,812
2016-08-25T13:03:24.359Z,816
2016-08-25T13:04:24.992Z,812
2016-08-25T13:05:25.626Z,808
2016-08-25T13:06:26.258Z,816
2016-08-25T13:07:26.900Z,808
2016-08-25T13:08:27.540Z,808
2016-08-25T13:09:28.191Z,796
2016-08-25T13:10:28.838Z,792
2016-08-25T13:11:29.500Z,776
2016-08-25T13:12:30.223Z,784
2016-08-25T13:13:30.866Z,792
2016-08-25T13:14:31.502Z,800
2016-08-25T13:15:32.137Z,792
2016-08-25T13:16:32.761Z,800
2016-08-25T13:17:33.395Z,804
2016-08-25T13:18:34.019Z,804
2016-08-25T13:19:34.648Z,800
2016-08-25T13:20:35.290Z,804
2016-08-25T13:21:35.920Z,812
2016-08-25T13:22:36.556Z,804
2016-08-25T13:23:37.191Z,808
2016-08-25T13:24:37.824Z,812
2016-08-25T13:25:38.458Z,812
2016-08-25T13:26:39.108Z,812
2016-08-25T13:27:39.743Z,808
2016-08-25T13:28:40.376Z,824
2016-08-25T13:29:40.998Z,812
2016-08-25T13:30:41.643Z,812
2016-08-25T13:31:42.271Z,812
2016-08-25T13:32:42.895Z,812
2016-08-25T13:33:43.520Z,816
2016-08-25T13:34:44.147Z,808
2016-08-25T13:35:44.775Z,808
2016-08-25T13:36:45.412Z,804
2016-08-25T13:37:46.038Z,796
2016-08-25T13:38:46.663Z,808
2016-08-25T13:39:47.292Z,812
2016-08-25T13:40:47.913Z,808
2016-08-25T13:41:48.536Z,812
2016-08-25T13:42:49.177Z,780
2016-08-25T13:43:49.823Z,780
2016-08-25T13:44:50.445Z,772
2016-08-25T13:45:51.068Z,776
2016-08-25T13:46:51.697Z,772
2016-08-25T13:47:52.330Z,772
2016-08-25T13:48:52.961Z,768
2016-08-25T13:49:53.595Z,772
2016-08-25T13:50:54.226Z,768
2016-08-25T13:51:54.867Z,764
2016-08-25T13:52:55.487Z,760
2016-08-25T13:53:56.110Z,756
2016-08-25T13:54:56.743Z,756
2016-08-25T13:55:57.379Z,752
2016-08-25T13:56:58.008Z,748
2016-08-25T13:57:58.643Z,748
2016-08-25T13:58:59.285Z,748
2016-08-25T13:59:59.977Z,744
2016-08-25T14:01:00.780Z,744